sensor_id;sensor_type;location;lat;lon;timestamp;pressure;altitude;pressure_sealevel;temperature;humidity
12486;BME280;6307;46.804;11.580;2022-10-16T00:01:28;-21256.47;;;13.46;100.00
12486;BME280;6307;46.804;11.580;2022-10-16T00:03:57;-21260.66;;;13.60;100.00
12486;BME280;6307;46.804;11.580;2022-10-16T00:06:25;-21260.97;;;13.61;100.00
12486;BME280;6307;46.804;11.580;2022-10-16T00:08:53;-21259.31;;;13.56;100.00
12486;BME280;6307;46.804;11.580;2022-10-16T00:11:21;-21261.56;;;13.63;100.00
12486;BME280;6307;46.804;11.580;2022-10-16T00:13:50;-21265.59;;;13.77;100.00
12486;BME280;6307;46.804;11.580;2022-10-16T00:16:20;-21262.59;;;13.67;100.00
12486;BME280;6307;46.804;11.580;2022-10-16T00:18:46;-21266.06;;;13.78;100.00
12486;BME280;6307;46.804;11.580;2022-10-16T00:21:20;-21264.72;;;13.74;100.00
12486;BME280;6307;46.804;11.580;2022-10-16T00:24:00;-21263.50;;;13.70;100.00
12486;BME280;6307;46.804;11.580;2022-10-16T00:26:30;-21268.00;;;13.85;100.00
12486;BME280;6307;46.804;11.580;2022-10-16T00:28:58;-21261.56;;;13.63;100.00
12486;BME280;6307;46.804;11.580;2022-10-16T00:31:24;-21261.84;;;13.64;100.00
12486;BME280;6307;46.804;11.580;2022-10-16T00:33:51;-21263.34;;;13.69;100.00
12486;BME280;6307;46.804;11.580;2022-10-16T00:36:21;-21264.56;;;13.73;100.00
12486;BME280;6307;46.804;11.580;2022-10-16T00:38:56;-21263.81;;;13.71;100.00
12486;BME280;6307;46.804;11.580;2022-10-16T00:41:25;-21263.50;;;13.70;100.00
12486;BME280;6307;46.804;11.580;2022-10-16T00:49:17;-21261.84;;;13.64;100.00
12486;BME280;6307;46.804;11.580;2022-10-16T00:51:48;-21262.31;;;13.66;100.00
12486;BME280;6307;46.804;11.580;2022-10-16T00:54:24;-21264.56;;;13.73;100.00
12486;BME280;6307;46.804;11.580;2022-10-16T00:56:54;-21262.31;;;13.66;100.00
12486;BME280;6307;46.804;11.580;2022-10-16T00:59:34;-21262.31;;;13.66;100.00
12486;BME280;6307;46.804;11.580;2022-10-16T01:02:04;-21262.47;;;13.66;100.00
12486;BME280;6307;46.804;11.580;2022-10-16T01:04:37;-21263.66;;;13.70;100.00
12486;BME280;6307;46.804;11.580;2022-10-16T01:07:54;-21258.72;;;13.54;100.00
12486;BME280;6307;46.804;11.580;2022-10-16T01:13:07;-21260.66;;;13.60;100.00
12486;BME280;6307;46.804;11.580;2022-10-16T01:16:10;-21260.06;;;13.58;100.00
12486;BME280;6307;46.804;11.580;2022-10-16T01:19:07;-21259.31;;;13.56;100.00
12486;BME280;6307;46.804;11.580;2022-10-16T01:21:57;-21260.97;;;13.61;100.00
12486;BME280;6307;46.804;11.580;2022-10-16T01:24:48;-21264.09;;;13.72;100.00
12486;BME280;6307;46.804;11.580;2022-10-16T01:29:56;-21264.56;;;13.73;100.00
12486;BME280;6307;46.804;11.580;2022-10-16T01:32:29;-21263.66;;;13.70;100.00
12486;BME280;6307;46.804;11.580;2022-10-16T01:35:10;-21262.00;;;13.65;100.00
12486;BME280;6307;46.804;11.580;2022-10-16T01:40:27;-21260.97;;;13.61;100.00
12486;BME280;6307;46.804;11.580;2022-10-16T01:42:59;-21261.25;;;13.62;100.00
12486;BME280;6307;46.804;11.580;2022-10-16T01:45:47;-21261.72;;;13.64;100.00
12486;BME280;6307;46.804;11.580;2022-10-16T01:48:18;-21262.47;;;13.66;100.00
12486;BME280;6307;46.804;11.580;2022-10-16T01:50:54;-21261.72;;;13.64;100.00
12486;BME280;6307;46.804;11.580;2022-10-16T01:53:28;-21261.84;;;13.64;100.00
12486;BME280;6307;46.804;11.580;2022-10-16T01:55:57;-21262.75;;;13.67;100.00
12486;BME280;6307;46.804;11.580;2022-10-16T01:58:25;-21263.50;;;13.70;100.00
12486;BME280;6307;46.804;11.580;2022-10-16T02:00:56;-21262.75;;;13.67;100.00
12486;BME280;6307;46.804;11.580;2022-10-16T02:03:22;-21262.59;;;13.67;100.00
12486;BME280;6307;46.804;11.580;2022-10-16T02:05:52;-21262.47;;;13.66;100.00
12486;BME280;6307;46.804;11.580;2022-10-16T02:08:22;-21262.91;;;13.68;100.00
12486;BME280;6307;46.804;11.580;2022-10-16T02:10:54;-21262.75;;;13.67;100.00
12486;BME280;6307;46.804;11.580;2022-10-16T02:13:44;-21263.22;;;13.69;100.00
12486;BME280;6307;46.804;11.580;2022-10-16T02:16:17;-21258.88;;;13.54;100.00
12486;BME280;6307;46.804;11.580;2022-10-16T02:18:44;-21259.47;;;13.56;100.00
12486;BME280;6307;46.804;11.580;2022-10-16T02:21:22;-21262.31;;;13.66;100.00
12486;BME280;6307;46.804;11.580;2022-10-16T02:24:42;-21266.94;;;13.81;100.00
12486;BME280;6307;46.804;11.580;2022-10-16T02:30:09;-21267.53;;;13.83;100.00
12486;BME280;6307;46.804;11.580;2022-10-16T02:32:52;-21269.03;;;13.88;100.00
12486;BME280;6307;46.804;11.580;2022-10-16T02:35:21;-21267.53;;;13.83;100.00
12486;BME280;6307;46.804;11.580;2022-10-16T02:37:50;-21266.94;;;13.81;100.00
12486;BME280;6307;46.804;11.580;2022-10-16T02:40:18;-21267.84;;;13.84;100.00
12486;BME280;6307;46.804;11.580;2022-10-16T02:42:50;-21268.59;;;13.87;100.00
12486;BME280;6307;46.804;11.580;2022-10-16T02:45:19;-21267.69;;;13.84;100.00
12486;BME280;6307;46.804;11.580;2022-10-16T02:47:45;-21267.53;;;13.83;100.00
12486;BME280;6307;46.804;11.580;2022-10-16T02:50:12;-21267.84;;;13.84;100.00
12486;BME280;6307;46.804;11.580;2022-10-16T02:52:38;-21265.44;;;13.76;100.00
12486;BME280;6307;46.804;11.580;2022-10-16T02:55:05;-21265.00;;;13.75;100.00
12486;BME280;6307;46.804;11.580;2022-10-16T02:57:31;-21267.53;;;13.83;100.00
12486;BME280;6307;46.804;11.580;2022-10-16T02:59:58;-21269.34;;;13.89;100.00
12486;BME280;6307;46.804;11.580;2022-10-16T03:02:24;-21269.94;;;13.91;100.00
12486;BME280;6307;46.804;11.580;2022-10-16T03:04:50;-21269.63;;;13.90;100.00
12486;BME280;6307;46.804;11.580;2022-10-16T03:07:16;-21268.44;;;13.86;100.00
12486;BME280;6307;46.804;11.580;2022-10-16T03:09:43;-21270.53;;;13.93;100.00
12486;BME280;6307;46.804;11.580;2022-10-16T03:12:09;-21271.88;;;13.98;100.00
12486;BME280;6307;46.804;11.580;2022-10-16T03:14:37;-21270.09;;;13.92;100.00
12486;BME280;6307;46.804;11.580;2022-10-16T03:17:05;-21272.31;;;13.99;100.00
12486;BME280;6307;46.804;11.580;2022-10-16T03:19:31;-21270.38;;;13.93;100.00
12486;BME280;6307;46.804;11.580;2022-10-16T03:21:57;-21269.63;;;13.90;100.00
12486;BME280;6307;46.804;11.580;2022-10-16T03:24:23;-21270.09;;;13.92;100.00
12486;BME280;6307;46.804;11.580;2022-10-16T03:26:49;-21270.38;;;13.93;100.00
12486;BME280;6307;46.804;11.580;2022-10-16T03:29:16;-21271.44;;;13.96;100.00
12486;BME280;6307;46.804;11.580;2022-10-16T03:31:42;-21271.28;;;13.96;100.00
12486;BME280;6307;46.804;11.580;2022-10-16T03:34:08;-21270.09;;;13.92;100.00
12486;BME280;6307;46.804;11.580;2022-10-16T03:36:34;-21263.66;;;13.70;100.00
12486;BME280;6307;46.804;11.580;2022-10-16T03:39:00;-21269.50;;;13.90;100.00
12486;BME280;6307;46.804;11.580;2022-10-16T03:41:26;-21273.53;;;14.03;100.00
12486;BME280;6307;46.804;11.580;2022-10-16T03:43:53;-21276.81;;;14.14;100.00
12486;BME280;6307;46.804;11.580;2022-10-16T03:46:19;-21279.38;;;14.23;100.00
12486;BME280;6307;46.804;11.580;2022-10-16T03:48:45;-21277.25;;;14.16;100.00
12486;BME280;6307;46.804;11.580;2022-10-16T03:51:11;-21275.31;;;14.09;100.00
12486;BME280;6307;46.804;11.580;2022-10-16T03:53:37;-21276.38;;;14.13;100.00
12486;BME280;6307;46.804;11.580;2022-10-16T03:56:03;-21275.03;;;14.08;100.00
12486;BME280;6307;46.804;11.580;2022-10-16T03:58:30;-21276.66;;;14.14;100.00
12486;BME280;6307;46.804;11.580;2022-10-16T04:00:56;-21275.91;;;14.11;100.00
12486;BME280;6307;46.804;11.580;2022-10-16T04:03:22;-21277.88;;;14.18;100.00
12486;BME280;6307;46.804;11.580;2022-10-16T04:05:49;-21276.06;;;14.12;100.00
12486;BME280;6307;46.804;11.580;2022-10-16T04:08:16;-21275.47;;;14.10;100.00
12486;BME280;6307;46.804;11.580;2022-10-16T04:10:42;-21279.97;;;14.25;100.00
12486;BME280;6307;46.804;11.580;2022-10-16T04:13:09;-21278.16;;;14.19;100.00
12486;BME280;6307;46.804;11.580;2022-10-16T04:15:36;-21278.00;;;14.18;100.00
12486;BME280;6307;46.804;11.580;2022-10-16T04:18:02;-21277.88;;;14.18;100.00
12486;BME280;6307;46.804;11.580;2022-10-16T04:20:29;-21280.09;;;14.25;100.00
12486;BME280;6307;46.804;11.580;2022-10-16T04:22:55;-21276.97;;;14.15;100.00
12486;BME280;6307;46.804;11.580;2022-10-16T04:25:22;-21278.16;;;14.19;100.00
12486;BME280;6307;46.804;11.580;2022-10-16T04:27:48;-21277.41;;;14.16;100.00
12486;BME280;6307;46.804;11.580;2022-10-16T04:30:14;-21277.88;;;14.18;100.00
12486;BME280;6307;46.804;11.580;2022-10-16T04:32:41;-21280.84;;;14.28;100.00
12486;BME280;6307;46.804;11.580;2022-10-16T04:35:07;-21277.25;;;14.16;100.00
12486;BME280;6307;46.804;11.580;2022-10-16T04:37:34;-21275.91;;;14.11;100.00
12486;BME280;6307;46.804;11.580;2022-10-16T04:40:00;-21278.31;;;14.19;100.00
12486;BME280;6307;46.804;11.580;2022-10-16T04:42:26;-21277.25;;;14.16;100.00
12486;BME280;6307;46.804;11.580;2022-10-16T04:44:52;-21278.47;;;14.20;100.00
12486;BME280;6307;46.804;11.580;2022-10-16T04:47:18;-21279.06;;;14.22;100.00
12486;BME280;6307;46.804;11.580;2022-10-16T04:49:44;-21274.72;;;14.07;100.00
12486;BME280;6307;46.804;11.580;2022-10-16T04:52:11;-21278.16;;;14.19;100.00
12486;BME280;6307;46.804;11.580;2022-10-16T04:54:37;-21272.47;;;14.00;100.00
12486;BME280;6307;46.804;11.580;2022-10-16T04:57:03;-21273.22;;;14.02;100.00
12486;BME280;6307;46.804;11.580;2022-10-16T04:59:30;-21265.75;;;13.77;100.00
12486;BME280;6307;46.804;11.580;2022-10-16T05:01:56;-21259.75;;;13.57;100.00
12486;BME280;6307;46.804;11.580;2022-10-16T05:04:22;-21262.47;;;13.66;100.00
12486;BME280;6307;46.804;11.580;2022-10-16T05:06:48;-21263.34;;;13.69;100.00
12486;BME280;6307;46.804;11.580;2022-10-16T05:09:15;-21265.59;;;13.77;100.00
12486;BME280;6307;46.804;11.580;2022-10-16T05:11:41;-21264.56;;;13.73;100.00
12486;BME280;6307;46.804;11.580;2022-10-16T05:14:07;-21266.94;;;13.81;100.00
12486;BME280;6307;46.804;11.580;2022-10-16T05:16:33;-21269.63;;;13.90;100.00
12486;BME280;6307;46.804;11.580;2022-10-16T05:18:59;-21270.38;;;13.93;100.00
12486;BME280;6307;46.804;11.580;2022-10-16T05:21:25;-21269.34;;;13.89;100.00
12486;BME280;6307;46.804;11.580;2022-10-16T05:23:53;-21269.63;;;13.90;100.00
12486;BME280;6307;46.804;11.580;2022-10-16T05:26:20;-21270.09;;;13.92;100.00
12486;BME280;6307;46.804;11.580;2022-10-16T05:28:47;-21270.53;;;13.93;100.00
12486;BME280;6307;46.804;11.580;2022-10-16T05:31:14;-21266.66;;;13.80;100.00
12486;BME280;6307;46.804;11.580;2022-10-16T05:33:40;-21268.16;;;13.85;100.00
12486;BME280;6307;46.804;11.580;2022-10-16T05:36:08;-21267.69;;;13.84;100.00
12486;BME280;6307;46.804;11.580;2022-10-16T05:38:35;-21270.97;;;13.95;100.00
12486;BME280;6307;46.804;11.580;2022-10-16T05:41:02;-21272.78;;;14.01;100.00
12486;BME280;6307;46.804;11.580;2022-10-16T05:43:31;-21272.03;;;13.98;100.00
12486;BME280;6307;46.804;11.580;2022-10-16T05:46:02;-21270.09;;;13.92;100.00
12486;BME280;6307;46.804;11.580;2022-10-16T05:48:31;-21268.00;;;13.85;100.00
12486;BME280;6307;46.804;11.580;2022-10-16T05:50:59;-21267.09;;;13.82;100.00
12486;BME280;6307;46.804;11.580;2022-10-16T05:53:32;-21269.50;;;13.90;100.00
12486;BME280;6307;46.804;11.580;2022-10-16T05:55:59;-21268.16;;;13.85;100.00
12486;BME280;6307;46.804;11.580;2022-10-16T05:58:31;-21268.59;;;13.87;100.00
12486;BME280;6307;46.804;11.580;2022-10-16T06:01:01;-21269.50;;;13.90;100.00
12486;BME280;6307;46.804;11.580;2022-10-16T06:03:30;-21269.34;;;13.89;100.00
12486;BME280;6307;46.804;11.580;2022-10-16T06:05:56;-21276.81;;;14.14;100.00
12486;BME280;6307;46.804;11.580;2022-10-16T06:08:23;-21275.47;;;14.10;100.00
12486;BME280;6307;46.804;11.580;2022-10-16T06:11:03;-21276.38;;;14.13;100.00
12486;BME280;6307;46.804;11.580;2022-10-16T06:13:31;-21279.38;;;14.23;100.00
12486;BME280;6307;46.804;11.580;2022-10-16T06:15:59;-21281.59;;;14.30;100.00
12486;BME280;6307;46.804;11.580;2022-10-16T06:18:27;-21278.16;;;14.19;100.00
12486;BME280;6307;46.804;11.580;2022-10-16T06:20:54;-21274.28;;;14.06;100.00
12486;BME280;6307;46.804;11.580;2022-10-16T06:23:22;-21270.38;;;13.93;100.00
12486;BME280;6307;46.804;11.580;2022-10-16T06:25:49;-21272.31;;;13.99;100.00
12486;BME280;6307;46.804;11.580;2022-10-16T06:28:15;-21271.44;;;13.96;100.00
12486;BME280;6307;46.804;11.580;2022-10-16T06:30:42;-21278.91;;;14.21;100.00
12486;BME280;6307;46.804;11.580;2022-10-16T06:33:10;-21281.59;;;14.30;100.00
12486;BME280;6307;46.804;11.580;2022-10-16T06:35:36;-21280.41;;;14.26;100.00
12486;BME280;6307;46.804;11.580;2022-10-16T06:38:02;-21278.31;;;14.19;100.00
12486;BME280;6307;46.804;11.580;2022-10-16T06:40:28;-21278.91;;;14.21;100.00
12486;BME280;6307;46.804;11.580;2022-10-16T06:42:55;-21281.59;;;14.30;100.00
12486;BME280;6307;46.804;11.580;2022-10-16T06:45:21;-21285.03;;;14.42;100.00
12486;BME280;6307;46.804;11.580;2022-10-16T06:47:47;-21286.38;;;14.46;100.00
12486;BME280;6307;46.804;11.580;2022-10-16T06:50:13;-21291.78;;;14.64;100.00
12486;BME280;6307;46.804;11.580;2022-10-16T06:52:40;-21288.47;;;14.53;100.00
12486;BME280;6307;46.804;11.580;2022-10-16T06:55:06;-21286.53;;;14.47;100.00
12486;BME280;6307;46.804;11.580;2022-10-16T06:57:32;-21292.22;;;14.66;100.00
12486;BME280;6307;46.804;11.580;2022-10-16T06:59:59;-21292.06;;;14.65;100.00
12486;BME280;6307;46.804;11.580;2022-10-16T07:02:25;-21290.72;;;14.61;100.00
12486;BME280;6307;46.804;11.580;2022-10-16T07:04:51;-21296.84;;;14.81;100.00
12486;BME280;6307;46.804;11.580;2022-10-16T07:07:17;-21296.53;;;14.80;100.00
12486;BME280;6307;46.804;11.580;2022-10-16T07:09:43;-21299.09;;;14.89;100.00
12486;BME280;6307;46.804;11.580;2022-10-16T07:12:09;-21298.34;;;14.86;100.00
12486;BME280;6307;46.804;11.580;2022-10-16T07:14:35;-21298.03;;;14.85;100.00
12486;BME280;6307;46.804;11.580;2022-10-16T07:17:02;-21309.25;;;15.23;100.00
12486;BME280;6307;46.804;11.580;2022-10-16T07:19:28;-21306.41;;;15.13;100.00
12486;BME280;6307;46.804;11.580;2022-10-16T07:21:54;-21311.03;;;15.29;100.00
12486;BME280;6307;46.804;11.580;2022-10-16T07:24:21;-21320.47;;;15.60;100.00
12486;BME280;6307;46.804;11.580;2022-10-16T07:26:47;-21328.22;;;15.86;100.00
12486;BME280;6307;46.804;11.580;2022-10-16T07:29:18;-21333.44;;;16.03;100.00
12486;BME280;6307;46.804;11.580;2022-10-16T07:31:47;-21337.31;;;16.16;100.00
12486;BME280;6307;46.804;11.580;2022-10-16T07:34:15;-21337.19;;;16.16;100.00
12486;BME280;6307;46.804;11.580;2022-10-16T07:36:42;-21346.72;;;16.48;100.00
12486;BME280;6307;46.804;11.580;2022-10-16T07:39:09;-21353.75;;;16.71;100.00
12486;BME280;6307;46.804;11.580;2022-10-16T07:41:35;-21358.06;;;16.86;100.00
12486;BME280;6307;46.804;11.580;2022-10-16T07:44:03;-21362.69;;;17.01;100.00
12486;BME280;6307;46.804;11.580;2022-10-16T07:46:29;-21367.63;;;17.18;100.00
12486;BME280;6307;46.804;11.580;2022-10-16T07:48:56;-21367.31;;;17.17;100.00
12486;BME280;6307;46.804;11.580;2022-10-16T07:51:24;-21368.50;;;17.21;100.00
12486;BME280;6307;46.804;11.580;2022-10-16T07:53:52;-21368.97;;;17.22;100.00
12486;BME280;6307;46.804;11.580;2022-10-16T07:56:19;-21371.19;;;17.30;100.00
12486;BME280;6307;46.804;11.580;2022-10-16T07:58:46;-21371.78;;;17.32;100.00
12486;BME280;6307;46.804;11.580;2022-10-16T08:01:15;-21368.06;;;17.19;100.00
12486;BME280;6307;46.804;11.580;2022-10-16T08:03:47;-21367.16;;;17.16;100.00
12486;BME280;6307;46.804;11.580;2022-10-16T08:06:15;-21364.34;;;17.07;100.00
12486;BME280;6307;46.804;11.580;2022-10-16T08:08:42;-21358.06;;;16.86;100.00
12486;BME280;6307;46.804;11.580;2022-10-16T08:11:09;-21360.16;;;16.93;100.00
12486;BME280;6307;46.804;11.580;2022-10-16T08:13:35;-21364.78;;;17.08;100.00
12486;BME280;6307;46.804;11.580;2022-10-16T08:16:02;-21365.53;;;17.11;100.00
12486;BME280;6307;46.804;11.580;2022-10-16T08:18:33;-21364.47;;;17.07;100.00
12486;BME280;6307;46.804;11.580;2022-10-16T08:21:00;-21343.75;;;16.38;100.00
12486;BME280;6307;46.804;11.580;2022-10-16T08:23:27;-21351.81;;;16.65;100.00
12486;BME280;6307;46.804;11.580;2022-10-16T08:25:55;-21355.84;;;16.78;100.00
12486;BME280;6307;46.804;11.580;2022-10-16T08:28:26;-21356.13;;;16.79;100.00
12486;BME280;6307;46.804;11.580;2022-10-16T08:30:52;-21353.00;;;16.69;100.00
12486;BME280;6307;46.804;11.580;2022-10-16T08:33:18;-21358.53;;;16.87;100.00
12486;BME280;6307;46.804;11.580;2022-10-16T08:35:53;-21353.16;;;16.69;100.00
12486;BME280;6307;46.804;11.580;2022-10-16T08:38:20;-21355.53;;;16.77;100.00
12486;BME280;6307;46.804;11.580;2022-10-16T08:40:46;-21362.69;;;17.01;100.00
12486;BME280;6307;46.804;11.580;2022-10-16T08:46:23;-21356.44;;;16.80;100.00
12486;BME280;6307;46.804;11.580;2022-10-16T08:48:58;-21345.25;;;16.43;100.00
12486;BME280;6307;46.804;11.580;2022-10-16T08:51:31;-21345.84;;;16.45;100.00
12486;BME280;6307;46.804;11.580;2022-10-16T08:57:04;-21352.25;;;16.66;100.00
12486;BME280;6307;46.804;11.580;2022-10-16T08:59:39;-21349.72;;;16.58;100.00
12486;BME280;6307;46.804;11.580;2022-10-16T09:02:28;-21345.69;;;16.44;100.00
12486;BME280;6307;46.804;11.580;2022-10-16T09:08:13;-21345.25;;;16.43;100.00
12486;BME280;6307;46.804;11.580;2022-10-16T09:14:23;-21344.34;;;16.40;100.00
12486;BME280;6307;46.804;11.580;2022-10-16T09:22:46;-21330.75;;;15.95;100.00
12486;BME280;6307;46.804;11.580;2022-10-16T09:25:15;-21329.13;;;15.89;100.00
12486;BME280;6307;46.804;11.580;2022-10-16T09:27:47;-21328.22;;;15.86;100.00
12486;BME280;6307;46.804;11.580;2022-10-16T09:30:19;-21331.22;;;15.96;100.00
12486;BME280;6307;46.804;11.580;2022-10-16T09:32:48;-21329.56;;;15.91;100.00
12486;BME280;6307;46.804;11.580;2022-10-16T09:35:53;-21324.34;;;15.73;100.00
12486;BME280;6307;46.804;11.580;2022-10-16T09:38:31;-21322.84;;;15.68;100.00
12486;BME280;6307;46.804;11.580;2022-10-16T09:41:00;-21323.00;;;15.69;100.00
12486;BME280;6307;46.804;11.580;2022-10-16T09:43:42;-21326.28;;;15.80;100.00
12486;BME280;6307;46.804;11.580;2022-10-16T09:48:51;-21336.13;;;16.13;100.00
12486;BME280;6307;46.804;11.580;2022-10-16T09:51:29;-21334.34;;;16.07;100.00
12486;BME280;6307;46.804;11.580;2022-10-16T09:54:18;-21337.63;;;16.17;100.00
12486;BME280;6307;46.804;11.580;2022-10-16T09:56:46;-21336.28;;;16.13;100.00
12486;BME280;6307;46.804;11.580;2022-10-16T09:59:22;-21331.06;;;15.96;100.00
12486;BME280;6307;46.804;11.580;2022-10-16T10:01:56;-21337.47;;;16.17;100.00
12486;BME280;6307;46.804;11.580;2022-10-16T10:04:38;-21335.97;;;16.12;100.00
12486;BME280;6307;46.804;11.580;2022-10-16T10:07:17;-21336.44;;;16.13;100.00
12486;BME280;6307;46.804;11.580;2022-10-16T10:09:46;-21341.22;;;16.29;100.00
12486;BME280;6307;46.804;11.580;2022-10-16T10:12:22;-21341.50;;;16.30;100.00
12486;BME280;6307;46.804;11.580;2022-10-16T10:14:56;-21341.81;;;16.31;100.00
12486;BME280;6307;46.804;11.580;2022-10-16T10:17:28;-21342.56;;;16.34;100.00
12486;BME280;6307;46.804;11.580;2022-10-16T10:20:01;-21342.41;;;16.33;100.00
12486;BME280;6307;46.804;11.580;2022-10-16T10:22:46;-21345.09;;;16.42;100.00
12486;BME280;6307;46.804;11.580;2022-10-16T10:25:15;-21346.13;;;16.46;100.00
12486;BME280;6307;46.804;11.580;2022-10-16T10:30:56;-21344.19;;;16.39;100.00
12486;BME280;6307;46.804;11.580;2022-10-16T10:33:53;-21344.06;;;16.39;100.00
12486;BME280;6307;46.804;11.580;2022-10-16T10:36:34;-21354.03;;;16.72;100.00
12486;BME280;6307;46.804;11.580;2022-10-16T10:39:24;-21357.78;;;16.85;100.00
12486;BME280;6307;46.804;11.580;2022-10-16T10:42:15;-21355.25;;;16.76;100.00
12486;BME280;6307;46.804;11.580;2022-10-16T10:44:57;-21358.66;;;16.88;100.00
12486;BME280;6307;46.804;11.580;2022-10-16T10:50:54;-21353.16;;;16.69;100.00
12486;BME280;6307;46.804;11.580;2022-10-16T10:59:19;-21356.28;;;16.80;100.00
12486;BME280;6307;46.804;11.580;2022-10-16T11:07:27;-21360.75;;;16.95;100.00
12486;BME280;6307;46.804;11.580;2022-10-16T11:10:08;-21363.28;;;17.03;100.00
12486;BME280;6307;46.804;11.580;2022-10-16T11:12:51;-21361.34;;;16.97;100.00
12486;BME280;6307;46.804;11.580;2022-10-16T11:15:29;-21360.75;;;16.95;100.00
12486;BME280;6307;46.804;11.580;2022-10-16T11:18:10;-21366.13;;;17.13;100.00
12486;BME280;6307;46.804;11.580;2022-10-16T11:20:57;-21368.50;;;17.21;100.00
12486;BME280;6307;46.804;11.580;2022-10-16T11:23:48;-21366.56;;;17.14;100.00
12486;BME280;6307;46.804;11.580;2022-10-16T11:26:33;-21364.19;;;17.06;100.00
12486;BME280;6307;46.804;11.580;2022-10-16T11:29:05;-21365.97;;;17.12;100.00
12486;BME280;6307;46.804;11.580;2022-10-16T11:31:48;-21370.91;;;17.29;100.00
12486;BME280;6307;46.804;11.580;2022-10-16T11:34:38;-21372.69;;;17.35;100.00
12486;BME280;6307;46.804;11.580;2022-10-16T11:37:24;-21374.34;;;17.40;100.00
12486;BME280;6307;46.804;11.580;2022-10-16T11:42:50;-21369.72;;;17.25;100.00
12486;BME280;6307;46.804;11.580;2022-10-16T11:45:32;-21372.38;;;17.34;100.00
12486;BME280;6307;46.804;11.580;2022-10-16T11:48:49;-21373.72;;;17.38;100.00
12486;BME280;6307;46.804;11.580;2022-10-16T11:51:42;-21379.84;;;17.59;100.00
12486;BME280;6307;46.804;11.580;2022-10-16T11:57:05;-21376.56;;;17.48;100.00
12486;BME280;6307;46.804;11.580;2022-10-16T11:59:46;-21388.50;;;17.88;100.00
12486;BME280;6307;46.804;11.580;2022-10-16T12:05:18;-21382.09;;;17.66;100.00
12486;BME280;6307;46.804;11.580;2022-10-16T12:08:05;-21380.00;;;17.59;100.00
12486;BME280;6307;46.804;11.580;2022-10-16T12:10:41;-21383.44;;;17.71;100.00
12486;BME280;6307;46.804;11.580;2022-10-16T12:16:27;-21385.06;;;17.76;100.00
12486;BME280;6307;46.804;11.580;2022-10-16T12:19:14;-21385.22;;;17.77;100.00
12486;BME280;6307;46.804;11.580;2022-10-16T12:21:42;-21397.88;;;18.19;100.00
12486;BME280;6307;46.804;11.580;2022-10-16T12:24:37;-21392.50;;;18.01;100.00
12486;BME280;6307;46.804;11.580;2022-10-16T12:27:19;-21387.75;;;17.85;100.00
12486;BME280;6307;46.804;11.580;2022-10-16T12:30:00;-21387.00;;;17.83;100.00
12486;BME280;6307;46.804;11.580;2022-10-16T12:32:38;-21386.56;;;17.81;100.00
12486;BME280;6307;46.804;11.580;2022-10-16T12:35:20;-21396.69;;;18.15;100.00
12486;BME280;6307;46.804;11.580;2022-10-16T12:37:49;-21400.09;;;18.27;100.00
12486;BME280;6307;46.804;11.580;2022-10-16T12:40:27;-21400.56;;;18.28;100.00
12486;BME280;6307;46.804;11.580;2022-10-16T12:42:56;-21402.94;;;18.36;100.00
12486;BME280;6307;46.804;11.580;2022-10-16T12:48:00;-21397.28;;;18.17;100.00
12486;BME280;6307;46.804;11.580;2022-10-16T12:50:38;-21402.34;;;18.34;100.00
12486;BME280;6307;46.804;11.580;2022-10-16T12:59:09;-21401.75;;;18.32;100.00
12486;BME280;6307;46.804;11.580;2022-10-16T13:02:01;-21392.66;;;18.02;100.00
12486;BME280;6307;46.804;11.580;2022-10-16T13:04:50;-21398.03;;;18.20;100.00
12486;BME280;6307;46.804;11.580;2022-10-16T13:10:40;-21405.47;;;18.45;100.00
12486;BME280;6307;46.804;11.580;2022-10-16T13:28:48;-21408.16;;;18.54;100.00
12486;BME280;6307;46.804;11.580;2022-10-16T13:31:22;-21402.81;;;18.36;100.00
12486;BME280;6307;46.804;11.580;2022-10-16T13:33:53;-21397.72;;;18.19;100.00
12486;BME280;6307;46.804;11.580;2022-10-16T13:36:27;-21395.50;;;18.11;100.00
12486;BME280;6307;46.804;11.580;2022-10-16T13:39:13;-21394.91;;;18.09;100.00
12486;BME280;6307;46.804;11.580;2022-10-16T13:42:10;-21396.09;;;18.13;100.00
12486;BME280;6307;46.804;11.580;2022-10-16T13:44:43;-21399.50;;;18.25;100.00
12486;BME280;6307;46.804;11.580;2022-10-16T13:47:19;-21393.72;;;18.05;100.00
12486;BME280;6307;46.804;11.580;2022-10-16T13:49:47;-21396.84;;;18.16;100.00
12486;BME280;6307;46.804;11.580;2022-10-16T13:52:44;-21406.66;;;18.49;100.00
12486;BME280;6307;46.804;11.580;2022-10-16T13:55:16;-21404.72;;;18.42;100.00
12486;BME280;6307;46.804;11.580;2022-10-16T13:57:44;-21400.72;;;18.29;100.00
12486;BME280;6307;46.804;11.580;2022-10-16T14:00:24;-21399.22;;;18.24;100.00
12486;BME280;6307;46.804;11.580;2022-10-16T14:03:04;-21398.31;;;18.21;100.00
12486;BME280;6307;46.804;11.580;2022-10-16T14:05:33;-21397.44;;;18.18;100.00
12486;BME280;6307;46.804;11.580;2022-10-16T14:08:00;-21392.81;;;18.02;100.00
12486;BME280;6307;46.804;11.580;2022-10-16T14:10:31;-21391.31;;;17.97;100.00
12486;BME280;6307;46.804;11.580;2022-10-16T14:13:00;-21385.81;;;17.79;100.00
12486;BME280;6307;46.804;11.580;2022-10-16T14:15:30;-21382.81;;;17.69;100.00
12486;BME280;6307;46.804;11.580;2022-10-16T14:17:58;-21379.69;;;17.58;100.00
12486;BME280;6307;46.804;11.580;2022-10-16T14:20:27;-21381.34;;;17.64;100.00
12486;BME280;6307;46.804;11.580;2022-10-16T14:23:04;-21384.31;;;17.74;100.00
12486;BME280;6307;46.804;11.580;2022-10-16T14:26:12;-21382.81;;;17.69;100.00
12486;BME280;6307;46.804;11.580;2022-10-16T14:28:42;-21380.44;;;17.61;100.00
12486;BME280;6307;46.804;11.580;2022-10-16T14:31:29;-21382.53;;;17.68;100.00
12486;BME280;6307;46.804;11.580;2022-10-16T14:33:58;-21385.38;;;17.77;100.00
12486;BME280;6307;46.804;11.580;2022-10-16T14:36:27;-21387.91;;;17.86;100.00
12486;BME280;6307;46.804;11.580;2022-10-16T14:39:17;-21387.16;;;17.83;100.00
12486;BME280;6307;46.804;11.580;2022-10-16T14:41:48;-21388.19;;;17.87;100.00